Time;durP1;ratioP1;P1;durP2;ratioP2;P2;SDS_P1;SDS_P2;PMS_P1;PMS_P2;Temp;Humidity;BMP_temperature;BMP_pressure;BME280_temperature;BME280_humidity;BME280_pressure;Samples;Min_cycle;Max_cycle;Signal;HPM_P1;HPM_P2
2022/05/15 00:00:37;;;;;;;23.23;5.20;;;;;;;;;;5060171;28;20056;-56
2022/05/15 00:00:41;;;;;;;21.38;4.70;;;;;;;;;;5062822;28;20427;-54
2022/05/15 00:03:11;;;;;;;20.52;5.75;;;;;;;;;;5048646;28;20547;-57
2022/05/15 00:05:37;;;;;;;20.25;4.95;;;;;;;;;;5059481;28;20033;-57
2022/05/15 00:08:03;;;;;;;17.65;5.20;;;;;;;;;;5048247;28;20116;-57
2022/05/15 00:10:30;;;;;;;20.80;5.20;;;;;;;;;;5054553;28;20115;-56
2022/05/15 00:12:56;;;;;;;22.50;5.60;;;;;;;;;;5068106;28;20062;-57
2022/05/15 00:15:22;;;;;;;20.92;4.80;;;;;;;;;;5054854;28;20037;-57
2022/05/15 00:17:48;;;;;;;20.38;4.85;;;;;;;;;;5068166;28;20453;-56
2022/05/15 00:20:14;;;;;;;18.15;5.15;;;;;;;;;;5055383;28;20048;-57
2022/05/15 00:22:40;;;;;;;15.60;4.35;;;;;;;;;;5052043;28;20116;-58
2022/05/15 00:25:07;;;;;;;19.70;4.22;;;;;;;;;;5044689;28;20031;-58
2022/05/15 00:27:33;;;;;;;14.50;4.18;;;;;;;;;;5056324;28;20162;-57
2022/05/15 00:29:59;;;;;;;14.40;4.00;;;;;;;;;;5057431;28;20024;-56
2022/05/15 00:32:25;;;;;;;14.00;4.50;;;;;;;;;;5072342;28;20032;-57
2022/05/15 00:34:51;;;;;;;17.67;3.90;;;;;;;;;;5068410;28;20210;-55
2022/05/15 00:37:17;;;;;;;19.88;5.00;;;;;;;;;;5062761;28;20085;-55
2022/05/15 00:39:43;;;;;;;20.15;4.32;;;;;;;;;;5068413;28;20496;-57
2022/05/15 00:42:10;;;;;;;17.70;5.13;;;;;;;;;;5052598;28;20029;-57
2022/05/15 00:44:37;;;;;;;18.75;3.92;;;;;;;;;;5052263;28;20128;-57
2022/05/15 00:47:03;;;;;;;13.68;4.25;;;;;;;;;;5068746;28;20020;-57
2022/05/15 00:49:29;;;;;;;17.60;4.18;;;;;;;;;;5071899;28;20103;-56
2022/05/15 00:52:01;;;;;;;17.92;4.25;;;;;;;;;;5058795;28;20100;-57
2022/05/15 00:54:32;;;;;;;20.98;4.05;;;;;;;;;;5070675;28;20044;-56
2022/05/15 00:57:03;;;;;;;19.80;4.50;;;;;;;;;;5058213;28;20070;-55
2022/05/15 00:59:32;;;;;;;14.15;4.05;;;;;;;;;;5052036;28;20116;-58
2022/05/15 01:01:58;;;;;;;14.55;3.70;;;;;;;;;;5055350;28;20094;-56
2022/05/15 01:04:24;;;;;;;18.25;4.43;;;;;;;;;;5051270;28;20033;-56
2022/05/15 01:06:51;;;;;;;17.42;4.78;;;;;;;;;;5055356;28;20029;-57
2022/05/15 01:09:17;;;;;;;14.20;3.92;;;;;;;;;;5069147;28;20104;-56
2022/05/15 01:11:43;;;;;;;14.07;4.15;;;;;;;;;;5063154;28;20025;-55
2022/05/15 01:14:10;;;;;;;11.75;4.43;;;;;;;;;;5066403;28;20495;-56
2022/05/15 01:16:37;;;;;;;16.20;4.20;;;;;;;;;;5064895;28;20059;-57
2022/05/15 01:19:04;;;;;;;12.93;3.35;;;;;;;;;;5064691;28;20039;-57
2022/05/15 01:21:30;;;;;;;13.30;3.70;;;;;;;;;;5067164;28;20024;-58
2022/05/15 01:23:56;;;;;;;14.00;4.47;;;;;;;;;;5061838;28;20032;-56
2022/05/15 01:26:24;;;;;;;15.38;3.63;;;;;;;;;;5069187;28;20024;-55
2022/05/15 01:28:50;;;;;;;14.30;3.75;;;;;;;;;;5060094;28;20032;-57
2022/05/15 01:31:17;;;;;;;12.38;3.78;;;;;;;;;;5068648;28;20111;-56
2022/05/15 01:33:46;;;;;;;13.60;3.80;;;;;;;;;;5059434;28;20041;-57
2022/05/15 01:36:12;;;;;;;13.48;4.10;;;;;;;;;;5069746;28;20087;-57
2022/05/15 01:38:38;;;;;;;13.20;4.25;;;;;;;;;;5058666;28;20059;-56
2022/05/15 01:41:06;;;;;;;13.10;4.32;;;;;;;;;;5070647;28;20649;-56
2022/05/15 01:43:33;;;;;;;15.38;4.57;;;;;;;;;;5057483;28;20033;-56
2022/05/15 01:45:59;;;;;;;11.40;3.67;;;;;;;;;;5070507;28;20493;-57
2022/05/15 01:48:25;;;;;;;12.40;3.90;;;;;;;;;;5058082;28;20060;-57
2022/05/15 01:50:51;;;;;;;16.67;3.95;;;;;;;;;;5070225;28;20056;-56
2022/05/15 01:53:17;;;;;;;11.80;3.15;;;;;;;;;;5060354;28;20423;-54
2022/05/15 01:55:43;;;;;;;13.75;3.13;;;;;;;;;;5068100;28;20570;-57
2022/05/15 01:58:10;;;;;;;11.80;4.10;;;;;;;;;;5062321;28;20035;-58
2022/05/15 02:00:37;;;;;;;12.55;3.13;;;;;;;;;;5055197;28;20029;-57
2022/05/15 02:03:03;;;;;;;12.98;3.63;;;;;;;;;;5055216;28;20024;-57
2022/05/15 02:05:29;;;;;;;11.45;3.13;;;;;;;;;;5057799;28;20437;-58
2022/05/15 02:07:55;;;;;;;16.08;3.80;;;;;;;;;;5053491;28;20020;-57
2022/05/15 02:10:21;;;;;;;12.00;3.22;;;;;;;;;;5059967;28;20035;-57
2022/05/15 02:12:47;;;;;;;13.77;3.95;;;;;;;;;;5067640;28;20402;-57
2022/05/15 02:15:15;;;;;;;14.52;4.30;;;;;;;;;;5060617;28;20128;-59
2022/05/15 02:17:41;;;;;;;15.30;3.97;;;;;;;;;;5051439;28;20049;-57
2022/05/15 02:20:10;;;;;;;13.23;3.65;;;;;;;;;;5060793;28;20104;-55
2022/05/15 02:22:36;;;;;;;13.20;3.92;;;;;;;;;;5049472;28;20029;-57
2022/05/15 02:25:02;;;;;;;13.77;3.05;;;;;;;;;;5062216;28;20475;-57
2022/05/15 02:27:29;;;;;;;11.18;3.95;;;;;;;;;;5049590;28;20112;-57
2022/05/15 02:29:55;;;;;;;16.50;3.97;;;;;;;;;;5051619;28;20086;-58
2022/05/15 02:32:21;;;;;;;19.20;4.28;;;;;;;;;;5069758;28;20036;-57
2022/05/15 02:34:47;;;;;;;11.00;3.25;;;;;;;;;;5064318;28;20060;-57
2022/05/15 02:37:13;;;;;;;13.68;3.55;;;;;;;;;;5050808;28;20029;-58
2022/05/15 02:39:39;;;;;;;10.90;3.35;;;;;;;;;;5057840;28;20020;-57
2022/05/15 02:42:05;;;;;;;9.43;3.45;;;;;;;;;;5059416;28;20178;-56
2022/05/15 02:44:31;;;;;;;14.10;3.15;;;;;;;;;;5060698;28;20050;-57
2022/05/15 02:46:57;;;;;;;10.68;3.45;;;;;;;;;;5061252;28;20035;-56
2022/05/15 02:52:08;;;;;;;14.07;3.60;;;;;;;;;;5068876;28;20035;-56
2022/05/15 02:54:35;;;;;;;11.57;3.50;;;;;;;;;;5064152;28;20037;-57
2022/05/15 02:57:03;;;;;;;9.98;3.10;;;;;;;;;;5062406;28;20056;-55
2022/05/15 02:59:29;;;;;;;11.18;3.78;;;;;;;;;;5067267;28;20044;-56
2022/05/15 03:01:55;;;;;;;13.05;3.40;;;;;;;;;;5057061;28;20074;-56
2022/05/15 03:04:21;;;;;;;10.35;2.83;;;;;;;;;;5066909;28;20032;-57
2022/05/15 03:06:47;;;;;;;9.95;3.03;;;;;;;;;;5057801;28;20048;-56
2022/05/15 03:09:13;;;;;;;12.50;3.30;;;;;;;;;;5068952;28;20059;-56
2022/05/15 03:11:39;;;;;;;11.18;3.63;;;;;;;;;;5056055;28;20050;-56
2022/05/15 03:14:05;;;;;;;15.25;3.65;;;;;;;;;;5069060;28;20123;-56
2022/05/15 03:16:31;;;;;;;11.27;3.20;;;;;;;;;;5055441;28;20104;-56
2022/05/15 03:18:57;;;;;;;7.05;3.03;;;;;;;;;;5068966;28;20089;-57
2022/05/15 03:21:29;;;;;;;11.70;3.38;;;;;;;;;;5057625;28;20599;-55
2022/05/15 03:24:00;;;;;;;9.07;2.70;;;;;;;;;;5068365;28;20138;-56
2022/05/15 03:26:27;;;;;;;9.05;3.20;;;;;;;;;;5058021;28;20036;-56
2022/05/15 03:28:53;;;;;;;8.55;3.25;;;;;;;;;;5066852;28;20028;-54
2022/05/15 03:31:19;;;;;;;9.15;3.42;;;;;;;;;;5060678;28;20044;-55
2022/05/15 03:33:46;;;;;;;11.07;3.47;;;;;;;;;;5063958;28;20044;-54
2022/05/15 03:36:13;;;;;;;9.18;2.83;;;;;;;;;;5062695;28;20491;-55
2022/05/15 03:38:39;;;;;;;7.45;3.13;;;;;;;;;;5061447;28;20107;-53
2022/05/15 03:41:06;;;;;;;9.50;3.22;;;;;;;;;;5064573;28;20021;-55
2022/05/15 03:43:32;;;;;;;10.75;3.05;;;;;;;;;;5057632;28;20028;-55
2022/05/15 03:45:58;;;;;;;10.57;2.72;;;;;;;;;;5049296;28;20024;-56
2022/05/15 03:48:24;;;;;;;9.35;3.53;;;;;;;;;;5056833;28;20462;-55
2022/05/15 03:50:50;;;;;;;11.23;3.33;;;;;;;;;;5067590;28;20034;-56
2022/05/15 03:53:16;;;;;;;12.68;3.42;;;;;;;;;;5057046;28;20020;-56
2022/05/15 03:55:42;;;;;;;10.10;3.38;;;;;;;;;;5068593;28;20051;-56
2022/05/15 03:58:08;;;;;;;8.38;2.90;;;;;;;;;;5049526;28;20033;-54
2022/05/15 04:00:34;;;;;;;9.52;3.22;;;;;;;;;;5051295;28;20036;-55
2022/05/15 04:03:00;;;;;;;9.80;3.13;;;;;;;;;;5064692;28;20060;-55
2022/05/15 04:05:27;;;;;;;9.55;2.78;;;;;;;;;;5067452;28;20452;-56
2022/05/15 04:07:56;;;;;;;9.25;2.80;;;;;;;;;;5064125;28;20025;-55
2022/05/15 04:10:22;;;;;;;10.10;2.95;;;;;;;;;;5068009;28;20148;-56
2022/05/15 04:12:48;;;;;;;8.10;2.40;;;;;;;;;;5063545;28;20032;-56
2022/05/15 04:15:15;;;;;;;9.57;3.28;;;;;;;;;;5067848;28;20156;-56
2022/05/15 04:17:49;;;;;;;10.52;2.78;;;;;;;;;;5064265;28;20112;-57
2022/05/15 04:20:17;;;;;;;12.25;3.38;;;;;;;;;;5052648;28;20075;-57
2022/05/15 04:22:43;;;;;;;11.82;2.70;;;;;;;;;;5053178;28;20096;-56
2022/05/15 04:25:11;;;;;;;9.32;2.90;;;;;;;;;;5055865;28;20044;-55
2022/05/15 04:27:37;;;;;;;7.68;2.60;;;;;;;;;;5049765;28;20116;-57
2022/05/15 04:30:03;;;;;;;10.48;3.25;;;;;;;;;;5057861;28;20356;-56
2022/05/15 04:32:29;;;;;;;11.10;3.25;;;;;;;;;;5049333;28;20096;-56
2022/05/15 04:34:55;;;;;;;11.27;3.20;;;;;;;;;;5062471;28;20083;-57
2022/05/15 04:37:21;;;;;;;7.57;2.42;;;;;;;;;;5066092;28;20193;-56
2022/05/15 04:39:48;;;;;;;8.77;3.28;;;;;;;;;;5063889;28;20115;-55
2022/05/15 04:42:14;;;;;;;11.65;2.67;;;;;;;;;;5067822;28;20024;-57
2022/05/15 04:44:40;;;;;;;7.95;2.88;;;;;;;;;;5060480;28;20053;-56
2022/05/15 04:47:06;;;;;;;9.50;2.67;;;;;;;;;;5048551;28;20089;-56
2022/05/15 04:49:32;;;;;;;8.73;2.85;;;;;;;;;;5060721;28;20056;-55
2022/05/15 04:51:58;;;;;;;7.30;2.42;;;;;;;;;;5048048;28;20037;-56
2022/05/15 04:54:24;;;;;;;9.88;2.92;;;;;;;;;;5057692;28;20082;-56
2022/05/15 04:56:50;;;;;;;10.13;3.38;;;;;;;;;;5064641;28;20027;-56
2022/05/15 04:59:16;;;;;;;8.63;2.88;;;;;;;;;;5062861;28;20107;-52
2022/05/15 05:01:43;;;;;;;7.60;2.75;;;;;;;;;;5052666;28;20061;-56
2022/05/15 05:04:09;;;;;;;11.55;3.60;;;;;;;;;;5053034;28;20036;-56
2022/05/15 05:06:36;;;;;;;11.60;3.88;;;;;;;;;;5055706;28;20551;-56
2022/05/15 05:09:02;;;;;;;10.13;3.15;;;;;;;;;;5054244;28;20029;-56
2022/05/15 05:11:28;;;;;;;12.90;3.03;;;;;;;;;;5061084;28;20028;-54
2022/05/15 05:13:55;;;;;;;25.67;5.00;;;;;;;;;;5039563;28;20069;-55
2022/05/15 05:16:21;;;;;;;14.65;4.38;;;;;;;;;;5060315;28;20021;-56
2022/05/15 05:18:48;;;;;;;27.25;4.20;;;;;;;;;;5070599;28;20055;-58
2022/05/15 05:21:14;;;;;;;22.98;4.28;;;;;;;;;;5062279;28;20896;-54
2022/05/15 05:23:41;;;;;;;23.67;5.35;;;;;;;;;;5050820;28;20040;-57
2022/05/15 05:26:07;;;;;;;22.90;4.47;;;;;;;;;;5065827;28;20029;-57
2022/05/15 05:28:34;;;;;;;27.83;5.50;;;;;;;;;;5050986;28;20175;-54
2022/05/15 05:31:00;;;;;;;20.40;4.47;;;;;;;;;;5063782;28;20064;-57
2022/05/15 05:33:26;;;;;;;17.52;5.75;;;;;;;;;;5050551;28;20474;-56
2022/05/15 05:35:53;;;;;;;30.10;5.88;;;;;;;;;;5062085;28;20491;-57
2022/05/15 05:38:19;;;;;;;13.13;4.57;;;;;;;;;;5051905;28;20029;-56
2022/05/15 05:40:45;;;;;;;24.92;5.10;;;;;;;;;;5053099;28;20053;-56
2022/05/15 05:43:11;;;;;;;24.48;5.15;;;;;;;;;;5065814;28;20070;-56
2022/05/15 05:45:37;;;;;;;23.35;5.20;;;;;;;;;;5066063;28;20107;-60
2022/05/15 05:48:04;;;;;;;27.92;6.20;;;;;;;;;;5071036;28;20600;-56
2022/05/15 05:50:30;;;;;;;25.52;5.68;;;;;;;;;;5068920;28;20099;-57
2022/05/15 05:52:57;;;;;;;23.42;6.72;;;;;;;;;;5070346;28;20028;-56
2022/05/15 05:55:23;;;;;;;28.70;5.25;;;;;;;;;;5066115;28;20112;-57
2022/05/15 05:57:50;;;;;;;27.55;5.20;;;;;;;;;;5070150;28;20112;-55
2022/05/15 06:00:18;;;;;;;19.02;4.88;;;;;;;;;;5069036;28;20027;-57
2022/05/15 06:02:44;;;;;;;21.60;6.07;;;;;;;;;;5064031;28;20463;-57
2022/05/15 06:05:10;;;;;;;18.42;5.10;;;;;;;;;;5050641;28;20021;-56
2022/05/15 06:07:37;;;;;;;19.90;5.15;;;;;;;;;;5062589;28;20021;-56
2022/05/15 06:10:05;;;;;;;22.60;5.43;;;;;;;;;;5051135;28;20063;-55
2022/05/15 06:12:31;;;;;;;25.52;6.43;;;;;;;;;;5056617;28;20040;-56
2022/05/15 06:14:57;;;;;;;26.73;5.72;;;;;;;;;;5070228;28;20075;-55
2022/05/15 06:17:24;;;;;;;25.98;6.00;;;;;;;;;;5065304;28;20379;-57
2022/05/15 06:19:50;;;;;;;19.42;4.95;;;;;;;;;;5050232;28;20108;-55
2022/05/15 06:22:16;;;;;;;18.48;5.18;;;;;;;;;;5051445;28;20056;-58
2022/05/15 06:24:42;;;;;;;18.48;5.22;;;;;;;;;;5067163;28;20417;-55
2022/05/15 06:27:09;;;;;;;20.20;5.72;;;;;;;;;;5062516;28;20025;-56
2022/05/15 06:29:36;;;;;;;17.35;5.50;;;;;;;;;;5064403;28;20039;-56
2022/05/15 06:32:02;;;;;;;17.45;5.53;;;;;;;;;;5064753;28;20099;-54
2022/05/15 06:34:28;;;;;;;20.13;5.90;;;;;;;;;;5049662;28;20102;-57
2022/05/15 06:36:54;;;;;;;19.27;5.95;;;;;;;;;;5052247;28;20901;-57
2022/05/15 06:39:20;;;;;;;21.48;5.55;;;;;;;;;;5069633;28;20476;-57
2022/05/15 06:41:50;;;;;;;13.52;5.00;;;;;;;;;;5067418;28;20070;-55
2022/05/15 06:44:17;;;;;;;16.07;5.07;;;;;;;;;;5068342;28;20074;-57
2022/05/15 06:46:43;;;;;;;20.00;5.47;;;;;;;;;;5068710;28;20262;-57
2022/05/15 06:49:09;;;;;;;20.35;5.90;;;;;;;;;;5064627;28;20159;-56
2022/05/15 06:51:35;;;;;;;22.58;5.18;;;;;;;;;;5049536;28;20120;-57
2022/05/15 06:54:01;;;;;;;18.52;5.32;;;;;;;;;;5061902;28;20025;-56
2022/05/15 06:59:12;;;;;;;16.92;4.95;;;;;;;;;;5056982;28;20032;-56
2022/05/15 07:01:38;;;;;;;21.42;5.70;;;;;;;;;;5069207;28;20037;-56
2022/05/15 07:04:04;;;;;;;24.08;6.38;;;;;;;;;;5056430;28;20037;-56
2022/05/15 07:06:31;;;;;;;17.58;4.95;;;;;;;;;;5069365;28;20521;-60
2022/05/15 07:08:57;;;;;;;17.63;5.07;;;;;;;;;;5057989;28;20025;-55
2022/05/15 07:11:23;;;;;;;18.50;5.10;;;;;;;;;;5067082;28;20112;-57
2022/05/15 07:13:49;;;;;;;18.40;5.40;;;;;;;;;;5060683;28;20069;-56
2022/05/15 07:16:15;;;;;;;15.93;5.30;;;;;;;;;;5049114;28;20472;-57
2022/05/15 07:18:41;;;;;;;21.60;6.05;;;;;;;;;;5051796;28;20027;-55
2022/05/15 07:21:07;;;;;;;20.05;5.88;;;;;;;;;;5061739;28;20127;-57
2022/05/15 07:23:33;;;;;;;18.55;6.20;;;;;;;;;;5067064;28;20119;-56
2022/05/15 07:26:00;;;;;;;31.17;6.07;;;;;;;;;;5057857;28;20056;-57
2022/05/15 07:28:26;;;;;;;28.25;7.53;;;;;;;;;;5051994;28;20142;-57
2022/05/15 07:30:52;;;;;;;30.05;7.15;;;;;;;;;;5056578;28;20115;-57
2022/05/15 07:33:22;;;;;;;29.48;7.75;;;;;;;;;;5066805;28;20127;-57
2022/05/15 07:35:49;;;;;;;27.92;7.10;;;;;;;;;;5059195;28;20041;-56
2022/05/15 07:38:15;;;;;;;27.98;7.35;;;;;;;;;;5030438;28;20116;-56
2022/05/15 07:40:42;;;;;;;26.35;7.53;;;;;;;;;;5060669;28;20108;-55
2022/05/15 07:43:09;;;;;;;31.88;7.50;;;;;;;;;;5048048;28;20036;-56
2022/05/15 07:45:35;;;;;;;24.42;6.57;;;;;;;;;;5059631;28;20116;-56
2022/05/15 07:48:02;;;;;;;24.70;8.13;;;;;;;;;;5048035;28;20292;-57
2022/05/15 07:50:28;;;;;;;24.00;7.00;;;;;;;;;;5059625;28;20048;-57
2022/05/15 07:52:55;;;;;;;21.13;6.82;;;;;;;;;;5048904;28;20807;-57
2022/05/15 07:55:21;;;;;;;21.60;6.68;;;;;;;;;;5057518;28;20047;-55
2022/05/15 07:57:48;;;;;;;19.98;7.07;;;;;;;;;;5058982;28;20029;-57
2022/05/15 08:00:14;;;;;;;22.52;6.68;;;;;;;;;;5061101;28;20037;-57
2022/05/15 08:02:41;;;;;;;17.30;6.10;;;;;;;;;;5062810;28;20422;-56
2022/05/15 08:08:02;;;;;;;17.57;6.97;;;;;;;;;;5063794;28;20117;-58
2022/05/15 08:10:32;;;;;;;21.10;7.18;;;;;;;;;;5061347;28;20032;-57
2022/05/15 08:12:59;;;;;;;22.23;6.30;;;;;;;;;;5047999;28;20040;-56
2022/05/15 08:15:26;;;;;;;17.23;7.32;;;;;;;;;;5052281;28;20090;-57
2022/05/15 08:17:52;;;;;;;19.42;5.88;;;;;;;;;;5056189;28;20483;-56
2022/05/15 08:25:50;;;;;;;22.02;6.70;;;;;;;;;;5052978;28;20082;-58
2022/05/15 08:28:16;;;;;;;29.15;7.15;;;;;;;;;;5055956;28;20164;-56
2022/05/15 08:30:42;;;;;;;31.38;6.50;;;;;;;;;;5053233;28;20048;-57
2022/05/15 08:33:10;;;;;;;31.48;6.90;;;;;;;;;;5058135;28;20077;-57
2022/05/15 08:35:36;;;;;;;23.08;6.53;;;;;;;;;;5048544;28;20575;-58
2022/05/15 08:38:02;;;;;;;25.70;6.80;;;;;;;;;;5059097;28;20037;-58
2022/05/15 08:40:33;;;;;;;20.55;6.53;;;;;;;;;;5053123;28;20542;-57
2022/05/15 08:43:02;;;;;;;27.33;7.07;;;;;;;;;;5062173;28;20166;-60
2022/05/15 08:45:31;;;;;;;20.77;6.90;;;;;;;;;;5051513;28;20059;-56
2022/05/15 08:48:04;;;;;;;21.77;6.93;;;;;;;;;;5064901;28;20033;-56
2022/05/15 08:50:34;;;;;;;21.15;6.65;;;;;;;;;;5052002;28;20115;-58
2022/05/15 08:53:02;;;;;;;19.88;6.07;;;;;;;;;;5046196;28;20158;-58
2022/05/15 08:55:36;;;;;;;28.83;7.15;;;;;;;;;;5050895;28;20049;-59
2022/05/15 08:58:02;;;;;;;19.40;6.10;;;;;;;;;;5057986;28;20391;-61
2022/05/15 09:00:30;;;;;;;22.45;7.00;;;;;;;;;;5054768;28;20103;-58
2022/05/15 09:03:01;;;;;;;22.10;7.40;;;;;;;;;;5054965;28;20032;-59
2022/05/15 09:05:27;;;;;;;;;;;;;;;;;;5051431;28;20142;-57
2022/05/15 09:07:59;;;;;;;15.13;5.75;;;;;;;;;;5061059;28;20389;-57
2022/05/15 09:10:25;;;;;;;17.23;6.03;;;;;;;;;;5071076;28;20115;-59
2022/05/15 09:12:57;;;;;;;17.52;6.22;;;;;;;;;;5067074;28;20020;-60
2022/05/15 09:15:27;;;;;;;20.48;5.90;;;;;;;;;;5063282;28;20697;-57
2022/05/15 09:18:00;;;;;;;22.25;6.03;;;;;;;;;;5067022;28;20494;-59
2022/05/15 09:20:26;;;;;;;17.20;5.40;;;;;;;;;;5055133;28;20032;-58
2022/05/15 09:23:16;;;;;;;22.45;6.28;;;;;;;;;;5060367;28;20541;-59
2022/05/15 09:25:42;;;;;;;23.03;5.70;;;;;;;;;;5062901;28;20509;-59
2022/05/15 09:28:09;;;;;;;20.00;6.05;;;;;;;;;;5065783;28;20021;-58
2022/05/15 09:30:45;;;;;;;19.73;5.40;;;;;;;;;;5070766;28;20727;-56
2022/05/15 09:33:27;;;;;;;16.98;5.45;;;;;;;;;;5066571;28;20135;-59
2022/05/15 09:36:13;;;;;;;17.23;5.20;;;;;;;;;;5070378;28;20123;-59
2022/05/15 09:38:39;;;;;;;15.82;5.70;;;;;;;;;;5070029;28;20029;-58
2022/05/15 09:43:57;;;;;;;20.60;5.03;;;;;;;;;;5069869;28;20043;-60
2022/05/15 09:46:26;;;;;;;13.65;4.82;;;;;;;;;;5070575;28;20501;-59
2022/05/15 09:49:01;;;;;;;22.23;4.50;;;;;;;;;;5067108;28;20398;-59
2022/05/15 09:51:30;;;;;;;15.18;4.43;;;;;;;;;;5056541;28;20116;-60
2022/05/15 09:53:57;;;;;;;15.13;4.95;;;;;;;;;;5065888;28;20082;-59
2022/05/15 09:56:30;;;;;;;16.95;4.88;;;;;;;;;;5056675;28;20037;-59
2022/05/15 09:59:13;;;;;;;15.88;4.20;;;;;;;;;;5059049;28;20063;-59
2022/05/15 10:01:41;;;;;;;18.38;4.57;;;;;;;;;;5065046;28;20032;-60
2022/05/15 10:04:19;;;;;;;19.85;4.60;;;;;;;;;;5065783;28;20387;-59
2022/05/15 10:06:56;;;;;;;18.63;4.82;;;;;;;;;;5070686;28;20032;-59
2022/05/15 10:09:27;;;;;;;17.50;4.10;;;;;;;;;;5065206;28;20556;-60
2022/05/15 10:12:00;;;;;;;16.80;4.28;;;;;;;;;;5069879;28;20478;-59
2022/05/15 10:14:29;;;;;;;15.25;4.40;;;;;;;;;;5052111;28;20612;-59
2022/05/15 10:16:56;;;;;;;13.85;4.38;;;;;;;;;;5070395;28;20516;-58
2022/05/15 10:19:32;;;;;;;17.65;5.82;;;;;;;;;;5068617;28;20033;-59
2022/05/15 10:22:05;;;;;;;20.30;6.97;;;;;;;;;;5061549;28;20032;-59
2022/05/15 10:24:34;;;;;;;17.30;6.32;;;;;;;;;;5067175;28;20048;-59
2022/05/15 10:27:04;;;;;;;20.10;7.60;;;;;;;;;;5060669;28;20395;-59
2022/05/15 10:29:36;;;;;;;;;;;;;;;;;;5069588;28;20065;-59
2022/05/15 10:32:05;;;;;;;24.17;6.88;;;;;;;;;;5068114;28;19904;-59
2022/05/15 10:34:31;;;;;;;18.92;7.55;;;;;;;;;;5067761;28;20135;-59
2022/05/15 10:37:04;;;;;;;16.33;6.78;;;;;;;;;;5069103;28;20028;-59
2022/05/15 10:39:43;;;;;;;22.77;7.70;;;;;;;;;;5068591;28;20035;-59
2022/05/15 10:42:31;;;;;;;15.75;6.65;;;;;;;;;;5058245;28;20024;-58
2022/05/15 10:44:57;;;;;;;15.95;6.78;;;;;;;;;;5067488;28;20396;-63
2022/05/15 10:47:27;;;;;;;17.17;5.28;;;;;;;;;;5059256;28;20056;-59
2022/05/15 10:50:19;;;;;;;20.17;5.80;;;;;;;;;;5060872;28;20471;-57
2022/05/15 10:52:48;;;;;;;19.02;5.43;;;;;;;;;;5054427;28;20277;-58
2022/05/15 10:58:14;;;;;;;13.13;4.63;;;;;;;;;;5052493;28;20024;-58
2022/05/15 11:00:59;;;;;;;26.20;5.72;;;;;;;;;;5052369;28;20020;-58
2022/05/15 11:03:32;;;;;;;17.10;5.25;;;;;;;;;;5059154;28;20032;-57
2022/05/15 11:06:01;;;;;;;15.02;5.20;;;;;;;;;;5065297;28;20044;-57
2022/05/15 11:08:49;;;;;;;12.50;4.90;;;;;;;;;;5057873;28;20103;-58
2022/05/15 11:11:21;;;;;;;14.68;4.70;;;;;;;;;;5063366;28;20032;-59
2022/05/15 11:13:55;;;;;;;14.32;4.82;;;;;;;;;;5059322;28;20032;-59
2022/05/15 11:16:39;;;;;;;13.93;4.47;;;;;;;;;;5063526;28;20101;-59
2022/05/15 11:19:24;;;;;;;19.60;4.93;;;;;;;;;;5061533;28;20025;-59
2022/05/15 11:22:31;;;;;;;18.02;4.47;;;;;;;;;;5062362;28;20033;-59
2022/05/15 11:25:19;;;;;;;11.38;4.43;;;;;;;;;;5005206;28;20034;-58
2022/05/15 11:27:57;;;;;;;12.70;4.95;;;;;;;;;;4994755;28;20065;-58
2022/05/15 11:30:27;;;;;;;16.15;4.70;;;;;;;;;;5030668;28;20033;-58
2022/05/15 11:32:53;;;;;;;12.95;4.72;;;;;;;;;;5052850;28;20108;-58
2022/05/15 11:35:20;;;;;;;14.00;4.07;;;;;;;;;;5067465;28;20036;-58
2022/05/15 11:38:07;;;;;;;16.25;4.53;;;;;;;;;;5058614;28;20024;-58
2022/05/15 11:40:36;;;;;;;11.27;4.00;;;;;;;;;;5068173;28;20108;-58
2022/05/15 11:43:21;;;;;;;15.95;3.63;;;;;;;;;;5064203;28;20028;-58
2022/05/15 11:45:51;;;;;;;10.85;4.05;;;;;;;;;;5048734;28;20037;-58
2022/05/15 11:48:17;;;;;;;12.10;3.80;;;;;;;;;;5051660;28;20056;-59
2022/05/15 11:50:57;;;;;;;14.02;4.13;;;;;;;;;;5066928;28;20035;-59
2022/05/15 11:53:28;;;;;;;8.27;3.13;;;;;;;;;;5057778;28;20111;-58
2022/05/15 11:55:55;;;;;;;12.68;4.00;;;;;;;;;;5066347;28;20120;-58
2022/05/15 11:58:26;;;;;;;15.07;4.25;;;;;;;;;;5057455;28;20075;-58
2022/05/15 12:00:59;;;;;;;12.30;3.63;;;;;;;;;;5067354;28;20039;-58
2022/05/15 12:03:34;;;;;;;14.75;4.25;;;;;;;;;;5063136;28;20032;-59
2022/05/15 12:06:00;;;;;;;14.02;3.85;;;;;;;;;;5067598;28;20459;-58
2022/05/15 12:08:32;;;;;;;11.98;3.40;;;;;;;;;;5061076;28;20021;-58
2022/05/15 12:10:59;;;;;;;11.88;3.83;;;;;;;;;;5062238;28;20035;-60
2022/05/15 12:13:27;;;;;;;11.23;3.55;;;;;;;;;;5062290;28;20024;-58
2022/05/15 12:16:12;;;;;;;10.45;3.08;;;;;;;;;;5063077;28;20059;-58
2022/05/15 12:18:39;;;;;;;10.57;3.63;;;;;;;;;;5068746;28;20024;-59
2022/05/15 12:21:05;;;;;;;14.50;4.10;;;;;;;;;;5066460;28;20055;-59
2022/05/15 12:23:36;;;;;;;11.15;3.20;;;;;;;;;;5069950;28;20108;-58
2022/05/15 12:26:23;;;;;;;10.98;3.30;;;;;;;;;;5062954;28;20827;-59
2022/05/15 12:28:52;;;;;;;8.57;2.70;;;;;;;;;;5057505;28;20029;-59
2022/05/15 12:31:33;;;;;;;11.07;3.75;;;;;;;;;;5061748;28;20024;-59
2022/05/15 12:34:11;;;;;;;10.88;3.65;;;;;;;;;;5039725;28;20462;-59
2022/05/15 12:36:39;;;;;;;8.93;3.17;;;;;;;;;;5067240;28;20094;-59
2022/05/15 12:39:05;;;;;;;11.85;3.45;;;;;;;;;;5071361;28;20108;-59
2022/05/15 12:41:36;;;;;;;12.68;3.72;;;;;;;;;;5058412;28;20029;-59
2022/05/15 12:44:03;;;;;;;10.20;3.10;;;;;;;;;;5062729;28;20695;-59
2022/05/15 12:46:34;;;;;;;11.27;3.15;;;;;;;;;;5068694;28;20052;-58
2022/05/15 12:49:00;;;;;;;10.25;3.00;;;;;;;;;;5064090;28;20108;-58
2022/05/15 12:51:26;;;;;;;11.85;3.03;;;;;;;;;;5066559;28;20021;-58
2022/05/15 12:53:52;;;;;;;8.60;2.72;;;;;;;;;;5064439;28;20079;-60
2022/05/15 12:56:29;;;;;;;11.60;3.63;;;;;;;;;;5065965;28;20078;-62
2022/05/15 12:59:19;;;;;;;9.48;2.80;;;;;;;;;;5063083;28;20025;-59
2022/05/15 13:01:46;;;;;;;11.80;3.80;;;;;;;;;;5064415;28;20478;-59
2022/05/15 13:04:17;;;;;;;11.38;3.30;;;;;;;;;;5064213;28;20199;-58
2022/05/15 13:06:49;;;;;;;12.38;2.75;;;;;;;;;;5067052;28;20031;-59
2022/05/15 13:09:20;;;;;;;7.07;2.25;;;;;;;;;;5064323;28;20123;-57
2022/05/15 13:11:48;;;;;;;8.40;3.20;;;;;;;;;;5066249;28;20024;-60
2022/05/15 13:14:21;;;;;;;10.35;2.67;;;;;;;;;;5062193;28;20025;-59
2022/05/15 13:16:51;;;;;;;10.88;3.30;;;;;;;;;;5066874;28;20608;-59
2022/05/15 13:19:17;;;;;;;;;;;;;;;;;;5054729;28;20098;-58
2022/05/15 13:21:46;;;;;;;10.50;2.85;;;;;;;;;;5057887;28;20366;-58
2022/05/15 13:24:14;;;;;;;8.68;2.78;;;;;;;;;;5074057;28;20050;-59
2022/05/15 13:26:43;;;;;;;13.90;3.53;;;;;;;;;;5060129;28;20108;-59
2022/05/15 13:29:11;;;;;;;14.85;3.20;;;;;;;;;;5070039;28;20071;-59
2022/05/15 13:31:38;;;;;;;14.13;3.25;;;;;;;;;;5069308;28;20024;-59
2022/05/15 13:34:05;;;;;;;13.93;3.65;;;;;;;;;;5052874;28;20053;-59
2022/05/15 13:36:31;;;;;;;7.70;2.60;;;;;;;;;;5057696;28;20111;-59
2022/05/15 13:44:34;;;;;;;12.23;2.88;;;;;;;;;;5052178;28;20071;-59
2022/05/15 13:47:00;;;;;;;9.52;2.45;;;;;;;;;;5058610;28;20024;-59
2022/05/15 13:49:36;;;;;;;11.65;3.00;;;;;;;;;;5053891;28;20048;-59
2022/05/15 13:52:20;;;;;;;11.75;3.70;;;;;;;;;;5057498;28;20042;-59
2022/05/15 13:54:46;;;;;;;8.98;2.67;;;;;;;;;;5052620;28;20033;-59
2022/05/15 13:57:13;;;;;;;15.80;3.35;;;;;;;;;;5054003;28;20040;-60
2022/05/15 13:59:44;;;;;;;13.38;3.15;;;;;;;;;;5069486;28;20032;-59
2022/05/15 14:02:15;;;;;;;9.13;3.00;;;;;;;;;;5064375;28;20095;-59
2022/05/15 14:04:42;;;;;;;8.55;2.92;;;;;;;;;;5064378;28;20032;-59
2022/05/15 14:07:08;;;;;;;7.00;2.10;;;;;;;;;;5065803;28;20082;-59
2022/05/15 14:09:41;;;;;;;9.65;2.80;;;;;;;;;;5061383;28;20024;-59
2022/05/15 14:12:09;;;;;;;13.07;2.75;;;;;;;;;;5067458;28;20099;-59
2022/05/15 14:14:48;;;;;;;9.57;2.42;;;;;;;;;;5059583;28;20131;-59
2022/05/15 14:17:16;;;;;;;6.57;2.42;;;;;;;;;;5067341;28;20149;-59
2022/05/15 14:19:54;;;;;;;6.68;2.10;;;;;;;;;;5059286;28;20036;-59
2022/05/15 14:22:21;;;;;;;11.15;2.50;;;;;;;;;;5067803;28;20116;-59
2022/05/15 14:24:48;;;;;;;9.63;2.35;;;;;;;;;;5058808;28;20055;-60
2022/05/15 14:27:16;;;;;;;8.48;2.00;;;;;;;;;;5067814;28;20025;-60
2022/05/15 14:29:42;;;;;;;10.65;2.40;;;;;;;;;;5061207;28;20029;-58
2022/05/15 14:32:10;;;;;;;8.43;2.08;;;;;;;;;;5049220;28;20029;-59
2022/05/15 14:34:37;;;;;;;8.48;2.42;;;;;;;;;;5057520;28;20209;-58
2022/05/15 14:37:03;;;;;;;11.73;2.90;;;;;;;;;;5070032;28;20380;-58
2022/05/15 14:39:29;;;;;;;10.57;2.80;;;;;;;;;;5055045;28;20049;-58
2022/05/15 14:41:59;;;;;;;9.80;2.28;;;;;;;;;;5069512;28;20021;-56
2022/05/15 14:44:25;;;;;;;9.43;2.70;;;;;;;;;;5057866;28;20029;-57
2022/05/15 14:46:54;;;;;;;11.70;2.45;;;;;;;;;;5068811;28;20089;-60
2022/05/15 14:49:20;;;;;;;12.75;3.15;;;;;;;;;;5065016;28;20032;-60
2022/05/15 14:51:46;;;;;;;13.68;2.40;;;;;;;;;;5050858;28;20025;-60
2022/05/15 14:54:16;;;;;;;7.85;2.65;;;;;;;;;;5053637;28;20115;-59
2022/05/15 14:56:42;;;;;;;9.13;2.47;;;;;;;;;;5051778;28;20036;-58
2022/05/15 14:59:11;;;;;;;9.68;2.50;;;;;;;;;;5056696;28;20272;-58
2022/05/15 15:01:40;;;;;;;12.10;2.78;;;;;;;;;;5062998;28;20036;-59
2022/05/15 15:04:06;;;;;;;9.07;2.90;;;;;;;;;;5065079;28;20024;-59